sensor_id;sensor_type;location;lat;lon;timestamp;pressure;altitude;pressure_sealevel;temperature;humidity
6218;BME280;3142;48.206;11.550;2023-03-29T00:00:33;96247.88;;;6.54;54.52
6218;BME280;3142;48.206;11.550;2023-03-29T00:03:00;96270.44;;;6.54;55.35
6218;BME280;3142;48.206;11.550;2023-03-29T00:05:29;96266.09;;;6.63;54.17
6218;BME280;3142;48.206;11.550;2023-03-29T00:07:58;96276.97;;;6.58;55.25
6218;BME280;3142;48.206;11.550;2023-03-29T00:10:26;96282.50;;;6.63;55.00
6218;BME280;3142;48.206;11.550;2023-03-29T00:12:53;96278.91;;;6.64;55.59
6218;BME280;3142;48.206;11.550;2023-03-29T00:15:19;96299.06;;;6.62;55.57
6218;BME280;3142;48.206;11.550;2023-03-29T00:17:46;96299.84;;;6.54;55.60
6218;BME280;3142;48.206;11.550;2023-03-29T00:20:13;96298.72;;;6.49;56.06
6218;BME280;3142;48.206;11.550;2023-03-29T00:22:43;96306.16;;;6.44;56.15
6218;BME280;3142;48.206;11.550;2023-03-29T00:25:11;96313.97;;;6.44;56.17
6218;BME280;3142;48.206;11.550;2023-03-29T00:27:38;96311.19;;;6.37;57.15
6218;BME280;3142;48.206;11.550;2023-03-29T00:30:07;96307.78;;;6.37;57.27
6218;BME280;3142;48.206;11.550;2023-03-29T00:32:34;96308.91;;;6.42;58.03
6218;BME280;3142;48.206;11.550;2023-03-29T00:35:00;96304.88;;;6.48;58.31
6218;BME280;3142;48.206;11.550;2023-03-29T00:37:29;96315.44;;;6.54;58.66
6218;BME280;3142;48.206;11.550;2023-03-29T00:39:57;96305.69;;;6.57;58.54
6218;BME280;3142;48.206;11.550;2023-03-29T00:42:24;96306.22;;;6.60;59.30
6218;BME280;3142;48.206;11.550;2023-03-29T00:44:54;96304.59;;;6.59;59.70
6218;BME280;3142;48.206;11.550;2023-03-29T00:47:24;96299.22;;;6.61;60.42
6218;BME280;3142;48.206;11.550;2023-03-29T00:49:52;96293.06;;;6.62;60.87
6218;BME280;3142;48.206;11.550;2023-03-29T00:52:20;96299.88;;;6.63;60.89
6218;BME280;3142;48.206;11.550;2023-03-29T00:54:48;96292.56;;;6.66;62.18
6218;BME280;3142;48.206;11.550;2023-03-29T00:57:19;96300.38;;;6.58;61.98
6218;BME280;3142;48.206;11.550;2023-03-29T00:59:49;96291.56;;;6.51;62.56
6218;BME280;3142;48.206;11.550;2023-03-29T01:02:20;96291.72;;;6.49;63.61
6218;BME280;3142;48.206;11.550;2023-03-29T01:04:51;96286.22;;;6.52;64.82
6218;BME280;3142;48.206;11.550;2023-03-29T01:07:22;96287.38;;;6.58;65.21
6218;BME280;3142;48.206;11.550;2023-03-29T01:09:54;96281.53;;;6.64;65.24
6218;BME280;3142;48.206;11.550;2023-03-29T01:12:28;96279.41;;;6.60;65.47
6218;BME280;3142;48.206;11.550;2023-03-29T01:15:00;96270.28;;;6.56;65.46
6218;BME280;3142;48.206;11.550;2023-03-29T01:17:27;96274.06;;;6.61;66.18
6218;BME280;3142;48.206;11.550;2023-03-29T01:19:58;96267.88;;;6.62;66.60
6218;BME280;3142;48.206;11.550;2023-03-29T01:22:38;96258.91;;;6.57;67.34
6218;BME280;3142;48.206;11.550;2023-03-29T01:25:12;96257.94;;;6.49;68.60
6218;BME280;3142;48.206;11.550;2023-03-29T01:27:50;96247.88;;;6.46;68.29
6218;BME280;3142;48.206;11.550;2023-03-29T01:30:21;96242.03;;;6.44;69.17
6218;BME280;3142;48.206;11.550;2023-03-29T01:32:53;96235.69;;;6.47;69.23
6218;BME280;3142;48.206;11.550;2023-03-29T01:35:25;96239.56;;;6.43;69.89
6218;BME280;3142;48.206;11.550;2023-03-29T01:37:56;96226.91;;;6.40;70.07
6218;BME280;3142;48.206;11.550;2023-03-29T01:40:24;96222.19;;;6.43;69.68
6218;BME280;3142;48.206;11.550;2023-03-29T01:42:57;96223.16;;;6.42;70.30
6218;BME280;3142;48.206;11.550;2023-03-29T01:45:33;96219.44;;;6.37;70.56
6218;BME280;3142;48.206;11.550;2023-03-29T01:48:07;96206.75;;;6.34;70.35
6218;BME280;3142;48.206;11.550;2023-03-29T01:50:40;96185.47;;;6.30;70.36
6218;BME280;3142;48.206;11.550;2023-03-29T01:53:09;96179.63;;;6.28;70.87
6218;BME280;3142;48.206;11.550;2023-03-29T01:55:39;96191.16;;;6.26;71.25
6218;BME280;3142;48.206;11.550;2023-03-29T01:58:10;96184.31;;;6.16;71.42
6218;BME280;3142;48.206;11.550;2023-03-29T02:00:40;96174.75;;;6.17;70.99
6218;BME280;3142;48.206;11.550;2023-03-29T02:03:08;96181.59;;;6.18;71.29
6218;BME280;3142;48.206;11.550;2023-03-29T02:05:36;96185.81;;;6.19;70.95
6218;BME280;3142;48.206;11.550;2023-03-29T02:08:06;96168.44;;;6.19;71.63
6218;BME280;3142;48.206;11.550;2023-03-29T02:10:35;96159.31;;;6.15;71.14
6218;BME280;3142;48.206;11.550;2023-03-29T02:13:02;96169.84;;;5.98;72.27
6218;BME280;3142;48.206;11.550;2023-03-29T02:15:30;96172.59;;;5.96;72.65
6218;BME280;3142;48.206;11.550;2023-03-29T02:17:56;96162.53;;;5.93;72.83
6218;BME280;3142;48.206;11.550;2023-03-29T02:20:26;96160.84;;;5.84;73.34
6218;BME280;3142;48.206;11.550;2023-03-29T02:22:57;96162.03;;;5.89;73.39
6218;BME280;3142;48.206;11.550;2023-03-29T02:25:26;96156.22;;;5.96;72.55
6218;BME280;3142;48.206;11.550;2023-03-29T02:27:54;96150.16;;;5.87;73.22
6218;BME280;3142;48.206;11.550;2023-03-29T02:30:22;96147.28;;;5.90;73.04
6218;BME280;3142;48.206;11.550;2023-03-29T02:32:55;96139.41;;;5.74;73.77
6218;BME280;3142;48.206;11.550;2023-03-29T02:35:26;96146.66;;;5.54;74.95
6218;BME280;3142;48.206;11.550;2023-03-29T02:38:00;96134.47;;;5.46;75.25
6218;BME280;3142;48.206;11.550;2023-03-29T02:40:28;96145.97;;;5.35;76.20
6218;BME280;3142;48.206;11.550;2023-03-29T02:42:56;96139.63;;;5.38;75.86
6218;BME280;3142;48.206;11.550;2023-03-29T02:45:24;96123.44;;;5.36;76.32
6218;BME280;3142;48.206;11.550;2023-03-29T02:47:55;96128.28;;;5.39;76.36
6218;BME280;3142;48.206;11.550;2023-03-29T02:50:24;96120.84;;;5.44;75.82
6218;BME280;3142;48.206;11.550;2023-03-29T02:52:56;96115.00;;;5.42;75.89
6218;BME280;3142;48.206;11.550;2023-03-29T02:55:26;96113.22;;;5.34;76.96
6218;BME280;3142;48.206;11.550;2023-03-29T02:57:58;96104.09;;;5.30;77.13
6218;BME280;3142;48.206;11.550;2023-03-29T03:00:27;96111.22;;;5.28;76.97
6218;BME280;3142;48.206;11.550;2023-03-29T03:02:55;96102.66;;;5.36;77.26
6218;BME280;3142;48.206;11.550;2023-03-29T03:05:21;96102.50;;;5.38;76.82
6218;BME280;3142;48.206;11.550;2023-03-29T03:07:48;96110.72;;;5.25;77.89
6218;BME280;3142;48.206;11.550;2023-03-29T03:10:15;96099.06;;;5.21;77.66
6218;BME280;3142;48.206;11.550;2023-03-29T03:12:43;96097.38;;;5.12;78.43
6218;BME280;3142;48.206;11.550;2023-03-29T03:15:10;96093.97;;;5.11;78.71
6218;BME280;3142;48.206;11.550;2023-03-29T03:17:37;96087.47;;;5.07;78.84
6218;BME280;3142;48.206;11.550;2023-03-29T03:20:08;96076.59;;;5.03;79.18
6218;BME280;3142;48.206;11.550;2023-03-29T03:22:38;96080.31;;;5.01;79.16
6218;BME280;3142;48.206;11.550;2023-03-29T03:25:06;96075.13;;;5.01;79.03
6218;BME280;3142;48.206;11.550;2023-03-29T03:27:34;96076.25;;;4.98;79.21
6218;BME280;3142;48.206;11.550;2023-03-29T03:30:01;96079.19;;;5.03;79.46
6218;BME280;3142;48.206;11.550;2023-03-29T03:32:29;96078.69;;;5.00;79.58
6218;BME280;3142;48.206;11.550;2023-03-29T03:34:56;96066.22;;;4.95;79.73
6218;BME280;3142;48.206;11.550;2023-03-29T03:37:24;96077.69;;;4.93;79.83
6218;BME280;3142;48.206;11.550;2023-03-29T03:39:51;96065.88;;;4.98;79.19
6218;BME280;3142;48.206;11.550;2023-03-29T03:42:18;96051.75;;;4.93;79.88
6218;BME280;3142;48.206;11.550;2023-03-29T03:44:44;96042.50;;;4.90;79.93
6218;BME280;3142;48.206;11.550;2023-03-29T03:47:11;96059.03;;;4.89;79.30
6218;BME280;3142;48.206;11.550;2023-03-29T03:49:38;96059.50;;;4.85;79.41
6218;BME280;3142;48.206;11.550;2023-03-29T03:52:05;96050.22;;;4.74;79.89
6218;BME280;3142;48.206;11.550;2023-03-29T03:54:33;96050.72;;;4.78;80.00
6218;BME280;3142;48.206;11.550;2023-03-29T03:56:59;96037.16;;;4.84;79.10
6218;BME280;3142;48.206;11.550;2023-03-29T03:59:26;96045.09;;;4.82;80.23
6218;BME280;3142;48.206;11.550;2023-03-29T04:01:52;96038.28;;;4.81;79.17
6218;BME280;3142;48.206;11.550;2023-03-29T04:04:19;96029.50;;;4.74;80.03
6218;BME280;3142;48.206;11.550;2023-03-29T04:06:46;96020.16;;;4.81;79.30
6218;BME280;3142;48.206;11.550;2023-03-29T04:09:12;96021.06;;;4.72;79.41
6218;BME280;3142;48.206;11.550;2023-03-29T04:11:40;96016.19;;;4.69;79.91
6218;BME280;3142;48.206;11.550;2023-03-29T04:14:07;96017.19;;;4.76;79.66
6218;BME280;3142;48.206;11.550;2023-03-29T04:16:33;96022.75;;;4.81;79.06
6218;BME280;3142;48.206;11.550;2023-03-29T04:19:00;96027.41;;;4.78;79.20
6218;BME280;3142;48.206;11.550;2023-03-29T04:21:26;96020.97;;;4.82;79.53
6218;BME280;3142;48.206;11.550;2023-03-29T04:23:52;96016.25;;;4.85;78.85
6218;BME280;3142;48.206;11.550;2023-03-29T04:26:19;96014.81;;;4.83;79.84
6218;BME280;3142;48.206;11.550;2023-03-29T04:28:47;96018.75;;;4.95;79.39
6218;BME280;3142;48.206;11.550;2023-03-29T04:31:14;96009.69;;;5.07;78.76
6218;BME280;3142;48.206;11.550;2023-03-29T04:33:41;95996.41;;;5.18;78.16
6218;BME280;3142;48.206;11.550;2023-03-29T04:36:10;96005.84;;;5.27;78.22
6218;BME280;3142;48.206;11.550;2023-03-29T04:38:38;96005.22;;;5.42;77.42
6218;BME280;3142;48.206;11.550;2023-03-29T04:41:06;95993.56;;;5.38;77.23
6218;BME280;3142;48.206;11.550;2023-03-29T04:43:33;95993.72;;;5.36;77.43
6218;BME280;3142;48.206;11.550;2023-03-29T04:46:01;95996.78;;;5.40;77.53
6218;BME280;3142;48.206;11.550;2023-03-29T04:48:27;95993.22;;;5.41;77.25
6218;BME280;3142;48.206;11.550;2023-03-29T04:50:56;95992.28;;;5.50;77.31
6218;BME280;3142;48.206;11.550;2023-03-29T04:53:22;95990.31;;;5.60;76.85
6218;BME280;3142;48.206;11.550;2023-03-29T04:55:49;95990.81;;;5.63;76.67
6218;BME280;3142;48.206;11.550;2023-03-29T04:58:16;95989.03;;;5.64;76.37
6218;BME280;3142;48.206;11.550;2023-03-29T05:00:43;95985.13;;;5.68;76.63
6218;BME280;3142;48.206;11.550;2023-03-29T05:03:11;95972.16;;;5.76;76.26
6218;BME280;3142;48.206;11.550;2023-03-29T05:05:39;95969.41;;;5.78;76.13
6218;BME280;3142;48.206;11.550;2023-03-29T05:08:05;95973.13;;;5.83;76.07
6218;BME280;3142;48.206;11.550;2023-03-29T05:10:33;95979.59;;;5.87;76.15
6218;BME280;3142;48.206;11.550;2023-03-29T05:13:00;95985.97;;;5.93;76.16
6218;BME280;3142;48.206;11.550;2023-03-29T05:15:28;95985.66;;;6.04;75.93
6218;BME280;3142;48.206;11.550;2023-03-29T05:17:55;95994.56;;;6.10;75.99
6218;BME280;3142;48.206;11.550;2023-03-29T05:20:24;95991.97;;;6.18;76.09
6218;BME280;3142;48.206;11.550;2023-03-29T05:22:50;95990.63;;;6.22;75.36
6218;BME280;3142;48.206;11.550;2023-03-29T05:25:17;95981.19;;;6.29;75.85
6218;BME280;3142;48.206;11.550;2023-03-29T05:27:43;95983.97;;;6.36;75.49
6218;BME280;3142;48.206;11.550;2023-03-29T05:30:11;95982.28;;;6.43;75.35
6218;BME280;3142;48.206;11.550;2023-03-29T05:32:39;95984.06;;;6.50;74.89
6218;BME280;3142;48.206;11.550;2023-03-29T05:35:07;95988.59;;;6.57;74.74
6218;BME280;3142;48.206;11.550;2023-03-29T05:37:35;95990.53;;;6.63;74.25
6218;BME280;3142;48.206;11.550;2023-03-29T05:40:03;95998.47;;;6.69;74.21
6218;BME280;3142;48.206;11.550;2023-03-29T05:42:34;95998.28;;;6.79;73.42
6218;BME280;3142;48.206;11.550;2023-03-29T05:45:01;95985.25;;;6.87;73.31
6218;BME280;3142;48.206;11.550;2023-03-29T05:47:28;95988.94;;;6.93;73.20
6218;BME280;3142;48.206;11.550;2023-03-29T05:49:55;95984.03;;;6.98;73.38
6218;BME280;3142;48.206;11.550;2023-03-29T05:52:22;95988.44;;;6.97;73.25
6218;BME280;3142;48.206;11.550;2023-03-29T05:54:50;95984.53;;;7.01;72.80
6218;BME280;3142;48.206;11.550;2023-03-29T05:57:17;95994.25;;;7.07;72.84
6218;BME280;3142;48.206;11.550;2023-03-29T05:59:43;95985.28;;;7.10;72.40
6218;BME280;3142;48.206;11.550;2023-03-29T06:02:11;95990.00;;;7.15;72.36
6218;BME280;3142;48.206;11.550;2023-03-29T06:04:39;95986.72;;;7.12;72.79
6218;BME280;3142;48.206;11.550;2023-03-29T06:07:05;95978.41;;;7.17;72.64
6218;BME280;3142;48.206;11.550;2023-03-29T06:09:34;95981.31;;;7.22;71.92
6218;BME280;3142;48.206;11.550;2023-03-29T06:12:02;95997.56;;;7.24;72.24
6218;BME280;3142;48.206;11.550;2023-03-29T06:14:28;95974.13;;;7.24;72.21
6218;BME280;3142;48.206;11.550;2023-03-29T06:16:55;95980.81;;;7.27;71.68
6218;BME280;3142;48.206;11.550;2023-03-29T06:19:22;95990.06;;;7.29;72.08
6218;BME280;3142;48.206;11.550;2023-03-29T06:21:48;95979.31;;;7.32;71.22
6218;BME280;3142;48.206;11.550;2023-03-29T06:24:16;95978.84;;;7.29;71.33
6218;BME280;3142;48.206;11.550;2023-03-29T06:26:43;95982.72;;;7.33;71.48
6218;BME280;3142;48.206;11.550;2023-03-29T06:29:12;95986.31;;;7.32;71.85
6218;BME280;3142;48.206;11.550;2023-03-29T06:31:38;95998.78;;;7.36;71.38
6218;BME280;3142;48.206;11.550;2023-03-29T06:34:05;95997.31;;;7.42;70.86
6218;BME280;3142;48.206;11.550;2023-03-29T06:36:31;96004.59;;;7.47;70.84
6218;BME280;3142;48.206;11.550;2023-03-29T06:38:59;96002.22;;;7.60;69.28
6218;BME280;3142;48.206;11.550;2023-03-29T06:41:25;95996.97;;;7.68;68.08
6218;BME280;3142;48.206;11.550;2023-03-29T06:43:52;96012.34;;;7.78;67.37
6218;BME280;3142;48.206;11.550;2023-03-29T06:46:20;96005.63;;;7.83;68.26
6218;BME280;3142;48.206;11.550;2023-03-29T06:48:47;96007.66;;;7.96;68.26
6218;BME280;3142;48.206;11.550;2023-03-29T06:51:13;96007.22;;;8.07;67.06
6218;BME280;3142;48.206;11.550;2023-03-29T06:53:40;96005.56;;;8.29;66.03
6218;BME280;3142;48.206;11.550;2023-03-29T06:56:07;96000.56;;;8.57;66.04
6218;BME280;3142;48.206;11.550;2023-03-29T06:58:34;96015.78;;;8.53;65.06
6218;BME280;3142;48.206;11.550;2023-03-29T07:01:00;96007.03;;;8.46;65.63
6218;BME280;3142;48.206;11.550;2023-03-29T07:03:29;96011.34;;;8.39;66.45
6218;BME280;3142;48.206;11.550;2023-03-29T07:05:59;96006.31;;;8.38;66.95
6218;BME280;3142;48.206;11.550;2023-03-29T07:08:27;96008.94;;;8.38;65.96
6218;BME280;3142;48.206;11.550;2023-03-29T07:10:55;96017.19;;;8.41;66.88
6218;BME280;3142;48.206;11.550;2023-03-29T07:13:22;96013.44;;;8.44;67.46
6218;BME280;3142;48.206;11.550;2023-03-29T07:15:50;96009.13;;;8.51;65.78
6218;BME280;3142;48.206;11.550;2023-03-29T07:18:17;96015.22;;;8.58;66.85
6218;BME280;3142;48.206;11.550;2023-03-29T07:20:45;96016.78;;;8.67;66.71
6218;BME280;3142;48.206;11.550;2023-03-29T07:23:12;96002.53;;;8.84;65.34
6218;BME280;3142;48.206;11.550;2023-03-29T07:25:39;96007.94;;;8.98;65.30
6218;BME280;3142;48.206;11.550;2023-03-29T07:28:06;96002.88;;;9.11;64.48
6218;BME280;3142;48.206;11.550;2023-03-29T07:30:33;95996.28;;;9.51;63.52
6218;BME280;3142;48.206;11.550;2023-03-29T07:32:59;95999.16;;;9.56;63.83
6218;BME280;3142;48.206;11.550;2023-03-29T07:35:27;95997.84;;;9.67;62.33
6218;BME280;3142;48.206;11.550;2023-03-29T07:37:56;96004.38;;;9.77;62.05
6218;BME280;3142;48.206;11.550;2023-03-29T07:40:23;96004.00;;;9.80;62.46
6218;BME280;3142;48.206;11.550;2023-03-29T07:42:51;95996.59;;;9.84;61.67
6218;BME280;3142;48.206;11.550;2023-03-29T07:45:19;95995.63;;;10.13;61.04
6218;BME280;3142;48.206;11.550;2023-03-29T07:47:46;96004.47;;;10.12;61.00
6218;BME280;3142;48.206;11.550;2023-03-29T07:50:14;96008.09;;;10.11;60.77
6218;BME280;3142;48.206;11.550;2023-03-29T07:52:41;96006.84;;;10.07;61.10
6218;BME280;3142;48.206;11.550;2023-03-29T07:55:11;96000.41;;;10.03;61.19
6218;BME280;3142;48.206;11.550;2023-03-29T07:57:38;96008.16;;;9.96;60.79
6218;BME280;3142;48.206;11.550;2023-03-29T08:00:06;96001.00;;;9.84;61.78
6218;BME280;3142;48.206;11.550;2023-03-29T08:02:40;96018.63;;;9.75;61.36
6218;BME280;3142;48.206;11.550;2023-03-29T08:05:08;96057.38;;;9.71;61.70
6218;BME280;3142;48.206;11.550;2023-03-29T08:07:37;96035.59;;;9.64;62.07
6218;BME280;3142;48.206;11.550;2023-03-29T08:10:04;96035.22;;;9.67;62.07
6218;BME280;3142;48.206;11.550;2023-03-29T08:12:32;96021.16;;;9.68;61.65
6218;BME280;3142;48.206;11.550;2023-03-29T08:14:59;96032.69;;;9.95;60.86
6218;BME280;3142;48.206;11.550;2023-03-29T08:17:25;96031.38;;;10.06;60.74
6218;BME280;3142;48.206;11.550;2023-03-29T08:19:52;96022.03;;;9.97;60.61
6218;BME280;3142;48.206;11.550;2023-03-29T08:22:18;96033.44;;;9.89;61.76
6218;BME280;3142;48.206;11.550;2023-03-29T08:24:45;96027.59;;;9.87;61.74
6218;BME280;3142;48.206;11.550;2023-03-29T08:27:11;96013.84;;;9.78;61.04
6218;BME280;3142;48.206;11.550;2023-03-29T08:29:39;96027.09;;;9.77;61.78
6218;BME280;3142;48.206;11.550;2023-03-29T08:32:05;96017.44;;;9.77;60.77
6218;BME280;3142;48.206;11.550;2023-03-29T08:34:32;96021.44;;;9.73;61.27
6218;BME280;3142;48.206;11.550;2023-03-29T08:36:59;96026.66;;;9.73;61.30
6218;BME280;3142;48.206;11.550;2023-03-29T08:39:26;96021.31;;;9.82;60.60
6218;BME280;3142;48.206;11.550;2023-03-29T08:42:00;96021.06;;;9.76;61.24
6218;BME280;3142;48.206;11.550;2023-03-29T08:44:47;96022.50;;;9.79;60.89
6218;BME280;3142;48.206;11.550;2023-03-29T08:47:19;96020.88;;;9.78;59.93
6218;BME280;3142;48.206;11.550;2023-03-29T08:49:52;96030.75;;;9.83;60.61
6218;BME280;3142;48.206;11.550;2023-03-29T08:52:22;96033.06;;;9.92;59.97
6218;BME280;3142;48.206;11.550;2023-03-29T08:54:56;96031.19;;;10.07;60.40
6218;BME280;3142;48.206;11.550;2023-03-29T08:57:29;96024.44;;;10.41;59.57
6218;BME280;3142;48.206;11.550;2023-03-29T08:59:59;96036.16;;;11.69;55.10
6218;BME280;3142;48.206;11.550;2023-03-29T09:02:31;96019.00;;;12.85;53.02
6218;BME280;3142;48.206;11.550;2023-03-29T09:05:04;96018.84;;;12.73;52.77
6218;BME280;3142;48.206;11.550;2023-03-29T09:07:31;96003.94;;;12.54;51.75
6218;BME280;3142;48.206;11.550;2023-03-29T09:09:58;96013.44;;;12.15;53.36
6218;BME280;3142;48.206;11.550;2023-03-29T09:12:32;96009.97;;;11.89;54.47
6218;BME280;3142;48.206;11.550;2023-03-29T09:15:09;96022.84;;;11.70;54.43
6218;BME280;3142;48.206;11.550;2023-03-29T09:17:45;96012.72;;;11.54;55.11
6218;BME280;3142;48.206;11.550;2023-03-29T09:20:20;96017.38;;;11.58;55.00
6218;BME280;3142;48.206;11.550;2023-03-29T09:22:59;96022.63;;;11.72;54.39
6218;BME280;3142;48.206;11.550;2023-03-29T09:25:42;96015.97;;;11.76;54.31
6218;BME280;3142;48.206;11.550;2023-03-29T09:28:12;96016.38;;;11.73;54.42
6218;BME280;3142;48.206;11.550;2023-03-29T09:30:54;96014.94;;;11.64;54.96
6218;BME280;3142;48.206;11.550;2023-03-29T09:33:24;96018.38;;;11.57;55.08
6218;BME280;3142;48.206;11.550;2023-03-29T09:35:55;96030.81;;;11.42;55.21
6218;BME280;3142;48.206;11.550;2023-03-29T09:38:24;96025.94;;;11.33;55.63
6218;BME280;3142;48.206;11.550;2023-03-29T09:40:54;96026.13;;;11.24;56.22
6218;BME280;3142;48.206;11.550;2023-03-29T09:43:28;96025.31;;;11.24;56.51
6218;BME280;3142;48.206;11.550;2023-03-29T09:46:00;96019.44;;;11.15;56.60
6218;BME280;3142;48.206;11.550;2023-03-29T09:48:28;96012.78;;;11.13;57.34
6218;BME280;3142;48.206;11.550;2023-03-29T09:50:56;96020.19;;;11.09;57.46
6218;BME280;3142;48.206;11.550;2023-03-29T09:53:25;96017.75;;;11.01;57.17
6218;BME280;3142;48.206;11.550;2023-03-29T09:55:52;96015.75;;;11.03;57.22
6218;BME280;3142;48.206;11.550;2023-03-29T09:58:22;96013.34;;;11.08;57.25
6218;BME280;3142;48.206;11.550;2023-03-29T10:00:49;96015.59;;;11.11;57.25
6218;BME280;3142;48.206;11.550;2023-03-29T10:03:21;96010.38;;;11.18;57.05
6218;BME280;3142;48.206;11.550;2023-03-29T10:05:50;96002.72;;;11.23;56.60
6218;BME280;3142;48.206;11.550;2023-03-29T10:08:21;96005.78;;;11.33;56.54
6218;BME280;3142;48.206;11.550;2023-03-29T10:10:48;96006.25;;;11.50;56.31
6218;BME280;3142;48.206;11.550;2023-03-29T10:13:19;96004.09;;;11.67;56.00
6218;BME280;3142;48.206;11.550;2023-03-29T10:15:56;95999.72;;;12.00;55.00
6218;BME280;3142;48.206;11.550;2023-03-29T10:18:24;95992.66;;;12.14;54.40
6218;BME280;3142;48.206;11.550;2023-03-29T10:20:57;95998.91;;;12.20;54.23
6218;BME280;3142;48.206;11.550;2023-03-29T10:23:29;95992.66;;;12.21;54.97
6218;BME280;3142;48.206;11.550;2023-03-29T10:25:56;95993.25;;;12.16;54.07
6218;BME280;3142;48.206;11.550;2023-03-29T10:28:23;95993.06;;;12.18;54.22
6218;BME280;3142;48.206;11.550;2023-03-29T10:30:52;95978.31;;;12.16;54.18
6218;BME280;3142;48.206;11.550;2023-03-29T10:33:21;95985.41;;;12.09;54.08
6218;BME280;3142;48.206;11.550;2023-03-29T10:35:50;95981.56;;;12.05;53.52
6218;BME280;3142;48.206;11.550;2023-03-29T10:38:18;95970.06;;;12.00;53.63
6218;BME280;3142;48.206;11.550;2023-03-29T10:40:46;95969.25;;;11.99;54.06
6218;BME280;3142;48.206;11.550;2023-03-29T10:43:20;95971.06;;;11.99;53.93
6218;BME280;3142;48.206;11.550;2023-03-29T10:45:48;95972.69;;;12.00;53.81
6218;BME280;3142;48.206;11.550;2023-03-29T10:48:16;95972.06;;;12.04;53.80
6218;BME280;3142;48.206;11.550;2023-03-29T10:50:48;95960.78;;;12.04;53.69
6218;BME280;3142;48.206;11.550;2023-03-29T10:53:21;95973.69;;;12.05;53.25
6218;BME280;3142;48.206;11.550;2023-03-29T10:55:54;95968.44;;;12.12;52.98
6218;BME280;3142;48.206;11.550;2023-03-29T10:58:31;95969.25;;;12.12;53.01
6218;BME280;3142;48.206;11.550;2023-03-29T11:01:03;95956.34;;;12.18;52.04
6218;BME280;3142;48.206;11.550;2023-03-29T11:03:46;95964.00;;;12.19;52.59
6218;BME280;3142;48.206;11.550;2023-03-29T11:06:21;95965.63;;;12.20;51.31
6218;BME280;3142;48.206;11.550;2023-03-29T11:08:55;95965.81;;;12.25;50.82
6218;BME280;3142;48.206;11.550;2023-03-29T11:11:42;95965.44;;;12.22;51.03
6218;BME280;3142;48.206;11.550;2023-03-29T11:14:19;95964.00;;;12.26;51.25
6218;BME280;3142;48.206;11.550;2023-03-29T11:16:56;95949.06;;;12.26;51.72
6218;BME280;3142;48.206;11.550;2023-03-29T11:19:41;95953.09;;;12.35;50.96
6218;BME280;3142;48.206;11.550;2023-03-29T11:22:12;95963.56;;;12.42;49.72
6218;BME280;3142;48.206;11.550;2023-03-29T11:24:57;95958.13;;;12.43;50.11
6218;BME280;3142;48.206;11.550;2023-03-29T11:27:32;95962.94;;;12.46;50.04
6218;BME280;3142;48.206;11.550;2023-03-29T11:30:06;95958.94;;;12.51;49.16
6218;BME280;3142;48.206;11.550;2023-03-29T11:32:44;95956.31;;;12.51;49.71
6218;BME280;3142;48.206;11.550;2023-03-29T11:35:25;95963.59;;;12.49;50.03
6218;BME280;3142;48.206;11.550;2023-03-29T11:37:58;95963.16;;;12.45;50.91
6218;BME280;3142;48.206;11.550;2023-03-29T11:40:41;95958.13;;;12.43;50.13
6218;BME280;3142;48.206;11.550;2023-03-29T11:43:13;95958.34;;;12.49;50.80
6218;BME280;3142;48.206;11.550;2023-03-29T11:45:45;95959.91;;;12.56;50.45
6218;BME280;3142;48.206;11.550;2023-03-29T11:48:19;95962.34;;;12.64;48.81
6218;BME280;3142;48.206;11.550;2023-03-29T11:50:51;95961.91;;;12.67;48.39
6218;BME280;3142;48.206;11.550;2023-03-29T11:53:22;95966.31;;;12.73;48.21
6218;BME280;3142;48.206;11.550;2023-03-29T11:55:53;95955.81;;;12.80;46.80
6218;BME280;3142;48.206;11.550;2023-03-29T11:58:25;95946.53;;;12.78;47.00
6218;BME280;3142;48.206;11.550;2023-03-29T12:00:57;95948.16;;;12.79;46.91
6218;BME280;3142;48.206;11.550;2023-03-29T12:03:32;95939.84;;;12.82;47.13
6218;BME280;3142;48.206;11.550;2023-03-29T12:06:07;95943.47;;;12.87;46.38
6218;BME280;3142;48.206;11.550;2023-03-29T12:08:38;95944.09;;;12.89;47.00
6218;BME280;3142;48.206;11.550;2023-03-29T12:11:13;95939.22;;;12.93;46.92
6218;BME280;3142;48.206;11.550;2023-03-29T12:13:47;95936.53;;;12.99;47.13
6218;BME280;3142;48.206;11.550;2023-03-29T12:16:19;95934.50;;;13.08;47.52
6218;BME280;3142;48.206;11.550;2023-03-29T12:18:51;95936.09;;;13.16;47.92
6218;BME280;3142;48.206;11.550;2023-03-29T12:21:21;95943.94;;;13.22;45.01
6218;BME280;3142;48.206;11.550;2023-03-29T12:23:48;95936.09;;;13.16;46.86
6218;BME280;3142;48.206;11.550;2023-03-29T12:26:28;95921.53;;;13.20;45.80
6218;BME280;3142;48.206;11.550;2023-03-29T12:29:08;95916.44;;;13.31;46.51
6218;BME280;3142;48.206;11.550;2023-03-29T12:31:42;95933.94;;;13.44;45.97
6218;BME280;3142;48.206;11.550;2023-03-29T12:34:29;95931.50;;;13.43;45.95
6218;BME280;3142;48.206;11.550;2023-03-29T12:37:20;95920.81;;;13.38;47.41
6218;BME280;3142;48.206;11.550;2023-03-29T12:39:49;95916.81;;;13.28;47.09
6218;BME280;3142;48.206;11.550;2023-03-29T12:42:20;95917.31;;;13.19;47.85
6218;BME280;3142;48.206;11.550;2023-03-29T12:44:49;95919.50;;;13.15;47.33
6218;BME280;3142;48.206;11.550;2023-03-29T12:47:20;95912.63;;;13.14;47.50
6218;BME280;3142;48.206;11.550;2023-03-29T12:49:51;95902.53;;;13.11;47.49
6218;BME280;3142;48.206;11.550;2023-03-29T12:52:23;95893.44;;;13.14;47.91
6218;BME280;3142;48.206;11.550;2023-03-29T12:54:52;95905.78;;;13.20;47.69
6218;BME280;3142;48.206;11.550;2023-03-29T12:57:26;95902.13;;;13.21;46.18
6218;BME280;3142;48.206;11.550;2023-03-29T12:59:52;95903.16;;;13.20;47.01
6218;BME280;3142;48.206;11.550;2023-03-29T13:02:33;95896.88;;;13.14;46.80
6218;BME280;3142;48.206;11.550;2023-03-29T13:05:00;95904.34;;;13.17;46.67
6218;BME280;3142;48.206;11.550;2023-03-29T13:07:32;95905.94;;;13.25;46.40
6218;BME280;3142;48.206;11.550;2023-03-29T13:10:00;95906.50;;;13.33;46.55
6218;BME280;3142;48.206;11.550;2023-03-29T13:12:33;95900.97;;;13.42;46.19
6218;BME280;3142;48.206;11.550;2023-03-29T13:15:03;95904.38;;;13.49;45.95
6218;BME280;3142;48.206;11.550;2023-03-29T13:17:37;95898.81;;;13.63;46.55
6218;BME280;3142;48.206;11.550;2023-03-29T13:20:19;95889.16;;;13.82;46.45
6218;BME280;3142;48.206;11.550;2023-03-29T13:22:59;95890.38;;;14.05;47.10
6218;BME280;3142;48.206;11.550;2023-03-29T13:25:45;95880.41;;;14.32;47.57
6218;BME280;3142;48.206;11.550;2023-03-29T13:28:23;95879.06;;;14.47;45.83
6218;BME280;3142;48.206;11.550;2023-03-29T13:30:57;95875.56;;;14.54;44.57